Time;durP1;ratioP1;P1;durP2;ratioP2;P2;SDS_P1;SDS_P2;PMS_P1;PMS_P2;Temp;Humidity;BMP_temperature;BMP_pressure;BME280_temperature;BME280_humidity;BME280_pressure;Samples;Min_cycle;Max_cycle;Signal;HPM_P1;HPM_P2
2021/12/18 00:01:03;;;;;;;13.67;9.50;;;8.90;99.90;;;;;;5015295;28;20178;-68
2021/12/18 00:03:28;;;;;;;14.80;10.00;;;8.90;99.90;;;;;;5015339;28;20490;-69
2021/12/18 00:05:54;;;;;;;15.37;10.90;;;8.90;99.90;;;;;;5001648;28;20440;-68
2021/12/18 00:08:19;;;;;;;14.33;9.67;;;8.90;99.90;;;;;;5014532;28;20206;-67
2021/12/18 00:10:45;;;;;;;15.30;10.23;;;9.00;99.90;;;;;;5017483;28;20180;-68
2021/12/18 00:13:12;;;;;;;15.13;11.23;;;8.90;99.90;;;;;;5019803;28;20184;-68
2021/12/18 00:15:37;;;;;;;15.87;11.00;;;8.90;99.90;;;;;;5013758;28;20426;-68
2021/12/18 00:18:03;;;;;;;16.60;11.30;;;8.80;99.90;;;;;;4999696;28;20816;-68
2021/12/18 00:20:30;;;;;;;20.60;11.00;;;8.70;99.90;;;;;;4997145;28;20660;-67
2021/12/18 00:22:56;;;;;;;15.60;10.23;;;8.80;99.90;;;;;;5000692;28;20207;-68
2021/12/18 00:25:22;;;;;;;16.73;11.03;;;8.80;99.90;;;;;;5013839;28;20807;-68
2021/12/18 00:27:48;;;;;;;16.80;11.23;;;8.90;99.90;;;;;;5013947;28;20489;-68
2021/12/18 00:30:14;;;;;;;16.83;10.73;;;8.90;99.90;;;;;;5014656;28;20489;-68
2021/12/18 00:32:40;;;;;;;18.30;12.47;;;8.80;99.90;;;;;;5014124;28;20449;-69
2021/12/18 00:35:05;;;;;;;16.63;11.57;;;8.70;99.90;;;;;;5013809;28;20180;-68
2021/12/18 00:37:31;;;;;;;17.00;11.53;;;8.70;99.90;;;;;;5010556;28;20199;-68
2021/12/18 00:39:59;;;;;;;16.40;11.40;;;8.70;99.90;;;;;;5008588;28;20182;-68
2021/12/18 00:42:47;;;;;;;19.07;12.17;;;8.80;99.90;;;;;;4993968;28;20541;-68
2021/12/18 00:45:14;;;;;;;19.80;12.57;;;8.90;99.90;;;;;;4994070;28;20900;-68
2021/12/18 00:47:41;;;;;;;18.50;12.70;;;8.90;99.90;;;;;;4993354;28;20430;-68
2021/12/18 00:50:11;;;;;;;17.53;11.50;;;8.80;99.90;;;;;;4992769;28;20440;-68
2021/12/18 00:52:36;;;;;;;19.13;13.30;;;8.70;99.90;;;;;;4994302;28;20471;-69
2021/12/18 00:55:03;;;;;;;19.80;12.80;;;8.70;99.90;;;;;;4993926;28;20807;-68
2021/12/18 00:57:29;;;;;;;20.07;12.47;;;8.60;99.90;;;;;;4993926;28;20413;-69
2021/12/18 00:59:59;;;;;;;15.67;10.90;;;8.60;99.90;;;;;;4994765;28;20977;-68
2021/12/18 01:02:26;;;;;;;19.90;12.40;;;8.70;99.90;;;;;;4995944;28;20208;-68
2021/12/18 01:04:51;;;;;;;18.13;11.20;;;8.80;99.90;;;;;;4994562;28;20421;-68
2021/12/18 01:07:17;;;;;;;19.17;12.57;;;8.80;99.90;;;;;;4997214;28;20420;-67
2021/12/18 01:12:11;;;;;;;15.80;11.93;;;8.70;99.90;;;;;;5015414;28;20179;-67
2021/12/18 01:25:05;;;;;;;13.03;9.60;;;9.00;99.90;;;;;;5014961;28;20977;-68
2021/12/18 01:27:31;;;;;;;15.67;10.60;;;9.00;99.90;;;;;;5014950;28;20419;-68
2021/12/18 01:29:56;;;;;;;15.77;10.30;;;8.90;99.90;;;;;;5013739;28;20584;-68
2021/12/18 01:32:22;;;;;;;19.37;12.70;;;9.00;99.90;;;;;;5013702;28;20273;-67
2021/12/18 01:34:48;;;;;;;14.57;9.83;;;9.00;99.90;;;;;;5013728;28;20183;-68
2021/12/18 01:37:14;;;;;;;18.53;11.77;;;9.00;99.90;;;;;;5013171;28;20983;-68
2021/12/18 01:39:41;;;;;;;15.47;9.20;;;9.00;99.90;;;;;;5012208;28;20422;-68
2021/12/18 01:42:57;;;;;;;13.67;9.50;;;9.00;99.90;;;;;;5013492;28;20992;-68
2021/12/18 01:45:32;;;;;;;14.90;9.80;;;9.00;99.90;;;;;;5013110;28;20472;-68
2021/12/18 01:53:26;;;;;;;17.20;10.40;;;8.70;99.90;;;;;;5013022;28;20420;-68
2021/12/18 01:55:52;;;;;;;18.57;10.67;;;8.70;99.90;;;;;;5012923;28;20416;-68
2021/12/18 01:58:24;;;;;;;13.90;9.67;;;8.70;99.90;;;;;;5013555;28;20217;-67
2021/12/18 02:00:52;;;;;;;16.80;9.50;;;8.80;99.90;;;;;;5018477;28;20177;-68
2021/12/18 02:03:18;;;;;;;15.60;10.57;;;8.90;99.90;;;;;;5010891;28;20468;-67
2021/12/18 02:05:43;;;;;;;16.37;10.57;;;8.90;99.90;;;;;;5014593;28;20425;-68
2021/12/18 02:08:09;;;;;;;21.13;10.97;;;8.90;99.90;;;;;;5019005;28;20549;-68
2021/12/18 02:10:46;;;;;;;17.10;11.10;;;8.90;99.90;;;;;;5018906;28;20181;-67
2021/12/18 02:13:36;;;;;;;16.00;9.77;;;9.00;99.90;;;;;;5018645;28;20216;-67
2021/12/18 02:21:44;;;;;;;13.90;9.20;;;9.10;99.90;;;;;;4995914;28;20458;-67
2021/12/18 02:24:09;;;;;;;15.27;9.90;;;9.10;99.90;;;;;;5018244;28;20797;-68
2021/12/18 02:26:35;;;;;;;17.43;10.63;;;9.10;99.90;;;;;;5018112;28;20474;-67
2021/12/18 02:29:03;;;;;;;15.20;9.67;;;9.00;99.90;;;;;;5018447;28;20256;-67
2021/12/18 02:31:29;;;;;;;15.07;10.60;;;9.00;99.90;;;;;;5018709;28;20176;-67
2021/12/18 02:33:56;;;;;;;14.90;9.13;;;8.80;99.90;;;;;;5018432;28;20427;-67
2021/12/18 02:36:24;;;;;;;17.43;11.00;;;8.80;99.90;;;;;;5019036;28;20439;-67
2021/12/18 02:43:51;;;;;;;14.87;8.90;;;8.60;99.90;;;;;;5017913;28;20394;-68
2021/12/18 02:46:19;;;;;;;13.93;9.50;;;8.60;99.90;;;;;;5018085;28;20465;-67
2021/12/18 02:48:47;;;;;;;16.40;10.17;;;8.70;99.90;;;;;;5018472;28;20508;-67
2021/12/18 02:51:14;;;;;;;13.17;8.70;;;8.70;99.90;;;;;;5017882;28;20429;-68
2021/12/18 02:53:45;;;;;;;13.50;9.13;;;8.80;99.90;;;;;;5018303;28;20414;-67
2021/12/18 02:56:12;;;;;;;15.60;10.10;;;8.70;99.90;;;;;;5018052;28;20417;-67
2021/12/18 02:58:40;;;;;;;13.70;9.00;;;8.50;99.90;;;;;;5018045;28;20468;-67
2021/12/18 03:01:08;;;;;;;16.60;10.00;;;8.50;99.90;;;;;;5017972;28;20427;-67
2021/12/18 03:03:37;;;;;;;15.10;9.33;;;8.40;99.90;;;;;;5017469;28;20572;-67
2021/12/18 03:06:33;;;;;;;15.40;8.87;;;8.40;99.90;;;;;;5016049;28;20801;-67
2021/12/18 03:09:17;;;;;;;18.00;10.20;;;8.40;99.90;;;;;;5012819;28;20832;-67
2021/12/18 03:27:45;;;;;;;17.63;11.43;;;8.40;99.90;;;;;;5015275;28;20429;-67
2021/12/18 03:30:11;;;;;;;15.50;9.80;;;8.30;99.90;;;;;;5015010;28;20412;-67
2021/12/18 03:32:37;;;;;;;16.90;9.77;;;8.40;99.90;;;;;;5014682;28;20447;-67
2021/12/18 03:35:04;;;;;;;17.97;11.47;;;8.40;99.90;;;;;;5014776;28;20446;-67
2021/12/18 03:37:30;;;;;;;19.60;11.50;;;8.40;99.90;;;;;;5014333;28;20668;-67
2021/12/18 03:39:56;;;;;;;17.80;11.00;;;8.50;99.90;;;;;;5014962;28;20548;-67
2021/12/18 03:42:21;;;;;;;15.97;9.87;;;8.60;99.90;;;;;;5014851;28;20448;-67
2021/12/18 03:44:48;;;;;;;16.70;10.87;;;8.60;99.90;;;;;;5014317;28;20175;-67
2021/12/18 03:47:14;;;;;;;17.07;10.77;;;8.60;99.90;;;;;;5014459;28;20197;-67
2021/12/18 03:49:39;;;;;;;17.20;10.13;;;8.80;99.90;;;;;;5014693;28;20411;-67
2021/12/18 03:52:05;;;;;;;15.77;10.30;;;8.80;99.90;;;;;;5014909;28;20504;-67
2021/12/18 03:54:31;;;;;;;21.40;13.50;;;8.90;99.90;;;;;;5014569;28;20641;-68
2021/12/18 03:56:56;;;;;;;17.53;11.60;;;8.80;99.90;;;;;;5014012;28;20203;-68
2021/12/18 03:59:22;;;;;;;24.30;15.40;;;8.70;99.90;;;;;;5026482;23;20639;-69
2021/12/18 04:01:48;;;;;;;21.60;11.90;;;8.60;99.90;;;;;;5010808;28;20206;-69
2021/12/18 04:04:13;;;;;;;16.47;10.77;;;8.60;99.90;;;;;;5013985;28;20196;-70
2021/12/18 04:06:39;;;;;;;16.63;11.23;;;8.60;99.90;;;;;;5013835;28;20190;-69
2021/12/18 04:09:06;;;;;;;20.27;11.67;;;8.60;99.90;;;;;;5014277;28;20258;-69
2021/12/18 04:11:32;;;;;;;17.83;10.67;;;8.60;99.90;;;;;;5013019;28;20916;-69
2021/12/18 04:13:57;;;;;;;16.93;11.27;;;8.60;99.90;;;;;;5014363;28;20406;-69
2021/12/18 04:16:23;;;;;;;16.13;10.33;;;8.60;99.90;;;;;;5013245;28;20176;-69
2021/12/18 04:18:48;;;;;;;21.50;11.93;;;8.60;99.90;;;;;;5018749;28;20198;-68
2021/12/18 04:21:14;;;;;;;23.63;13.97;;;8.70;99.90;;;;;;5019526;28;20182;-70
2021/12/18 04:23:40;;;;;;;25.50;14.10;;;8.70;99.90;;;;;;5019249;28;20265;-70
2021/12/18 04:26:06;;;;;;;24.57;13.10;;;8.70;99.90;;;;;;5019309;28;20168;-70
2021/12/18 04:28:32;;;;;;;19.40;12.00;;;8.70;99.90;;;;;;5019657;28;20432;-71
2021/12/18 04:30:57;;;;;;;27.40;14.37;;;8.80;99.90;;;;;;5027205;28;20243;-69
2021/12/18 04:33:23;;;;;;;24.40;12.97;;;8.80;99.90;;;;;;5022489;28;20500;-69
2021/12/18 04:35:49;;;;;;;24.67;12.33;;;8.70;99.90;;;;;;5025998;28;20669;-69
2021/12/18 04:38:15;;;;;;;25.07;13.27;;;8.80;99.90;;;;;;5021338;28;20203;-70
2021/12/18 04:40:42;;;;;;;19.73;12.17;;;8.80;99.90;;;;;;5013198;28;20220;-70
2021/12/18 04:43:08;;;;;;;24.07;14.63;;;8.80;99.90;;;;;;5013480;28;20908;-70
2021/12/18 04:45:33;;;;;;;23.50;15.03;;;8.80;99.90;;;;;;5013080;28;20492;-69
2021/12/18 04:47:59;;;;;;;28.17;14.33;;;8.80;99.90;;;;;;5013602;28;20222;-70
2021/12/18 04:50:25;;;;;;;21.27;12.97;;;8.80;99.90;;;;;;5020431;28;20179;-70
2021/12/18 04:52:51;;;;;;;19.50;11.70;;;8.80;99.90;;;;;;5018475;28;20199;-70
2021/12/18 04:55:17;;;;;;;22.53;12.00;;;8.80;99.90;;;;;;5013327;28;20791;-70
2021/12/18 04:57:43;;;;;;;19.67;11.43;;;8.90;99.90;;;;;;5013090;28;20544;-70
2021/12/18 05:00:12;;;;;;;20.50;12.43;;;8.90;99.90;;;;;;5013542;28;20981;-70
2021/12/18 05:02:39;;;;;;;16.97;10.97;;;8.90;99.90;;;;;;5013062;28;20299;-70
2021/12/18 05:05:05;;;;;;;21.37;12.13;;;8.90;99.90;;;;;;5013107;28;20422;-70
2021/12/18 05:07:31;;;;;;;24.23;13.73;;;8.90;99.90;;;;;;5012788;28;20448;-70
2021/12/18 05:09:57;;;;;;;21.93;11.90;;;8.80;99.90;;;;;;5013267;28;20753;-70
2021/12/18 05:12:23;;;;;;;23.87;12.47;;;8.80;99.90;;;;;;5012386;28;20430;-70
2021/12/18 05:14:49;;;;;;;21.10;11.77;;;8.80;99.90;;;;;;5012936;28;20172;-70
2021/12/18 05:17:15;;;;;;;23.10;13.37;;;8.90;99.90;;;;;;5012569;28;20463;-70
2021/12/18 05:19:40;;;;;;;20.47;11.50;;;8.90;99.90;;;;;;5012935;28;20560;-70
2021/12/18 05:22:06;;;;;;;20.03;11.60;;;9.00;99.90;;;;;;5012831;28;20267;-69
2021/12/18 05:24:32;;;;;;;16.93;10.60;;;9.00;99.90;;;;;;5012980;28;20192;-70
2021/12/18 05:26:58;;;;;;;22.83;12.07;;;9.00;99.90;;;;;;5012517;28;20181;-70
2021/12/18 05:29:23;;;;;;;20.27;12.57;;;9.10;99.90;;;;;;5012686;28;20230;-70
2021/12/18 05:31:49;;;;;;;21.40;10.80;;;9.10;99.90;;;;;;5012933;28;20453;-69
2021/12/18 05:34:23;;;;;;;18.40;10.57;;;9.00;99.90;;;;;;5012592;28;20689;-69
2021/12/18 05:39:25;;;;;;;17.30;10.80;;;9.10;99.90;;;;;;5012466;28;20425;-70
2021/12/18 05:41:51;;;;;;;19.13;12.50;;;9.10;99.90;;;;;;5010958;28;20435;-70
2021/12/18 05:44:18;;;;;;;14.43;9.13;;;9.10;99.90;;;;;;5012619;28;20255;-70
2021/12/18 05:46:44;;;;;;;16.07;9.00;;;9.10;99.90;;;;;;5012442;28;20417;-69
2021/12/18 05:49:10;;;;;;;14.63;8.60;;;8.90;99.90;;;;;;5012522;28;20907;-70
2021/12/18 05:51:36;;;;;;;13.77;7.93;;;8.80;99.90;;;;;;5013157;28;20414;-69
2021/12/18 05:54:02;;;;;;;14.53;8.07;;;8.60;99.90;;;;;;5012814;28;20180;-70
2021/12/18 05:56:27;;;;;;;15.43;8.67;;;8.50;99.90;;;;;;5012612;28;20405;-70
2021/12/18 05:58:53;;;;;;;14.67;8.97;;;8.50;99.90;;;;;;5012117;28;21009;-70
2021/12/18 06:01:19;;;;;;;14.30;8.57;;;8.60;99.90;;;;;;5012288;28;20594;-69
2021/12/18 06:03:45;;;;;;;16.60;9.17;;;8.60;99.90;;;;;;5012489;28;20168;-70
2021/12/18 06:06:11;;;;;;;15.97;9.73;;;8.80;99.90;;;;;;5011754;28;20559;-68
2021/12/18 06:08:38;;;;;;;15.63;8.90;;;8.80;99.90;;;;;;5011961;28;20802;-69
2021/12/18 06:11:15;;;;;;;15.20;8.70;;;8.80;99.90;;;;;;5011462;28;20419;-70
2021/12/18 06:13:45;;;;;;;18.00;10.20;;;8.80;99.90;;;;;;5012225;28;20420;-70
2021/12/18 06:16:11;;;;;;;17.07;8.70;;;8.90;99.90;;;;;;5011370;28;20438;-70
2021/12/18 06:18:40;;;;;;;18.10;9.60;;;8.90;99.90;;;;;;5012037;28;20428;-70
2021/12/18 06:21:06;;;;;;;14.83;7.70;;;8.90;99.90;;;;;;5011831;28;20426;-70
2021/12/18 06:23:32;;;;;;;14.27;8.20;;;8.90;99.90;;;;;;5011979;28;20454;-69
2021/12/18 06:25:58;;;;;;;13.87;7.60;;;8.80;99.90;;;;;;5011405;28;20476;-69
2021/12/18 06:28:24;;;;;;;14.43;8.90;;;8.80;99.90;;;;;;5011872;28;20201;-69
2021/12/18 06:30:50;;;;;;;16.43;8.70;;;8.90;99.90;;;;;;5016841;28;20938;-68
2021/12/18 06:33:17;;;;;;;17.50;9.20;;;8.90;99.90;;;;;;5014066;28;20171;-69
2021/12/18 06:35:42;;;;;;;15.77;9.03;;;8.80;99.90;;;;;;5011613;28;20446;-70
2021/12/18 06:38:08;;;;;;;14.40;8.33;;;8.80;99.90;;;;;;5011147;28;20484;-68
2021/12/18 06:40:34;;;;;;;14.23;8.30;;;8.80;99.90;;;;;;5011381;28;20186;-68
2021/12/18 06:42:59;;;;;;;15.03;7.47;;;8.80;99.90;;;;;;5011487;28;20210;-69
2021/12/18 06:45:25;;;;;;;18.60;8.60;;;8.90;99.90;;;;;;5012072;28;20213;-70
2021/12/18 06:47:51;;;;;;;14.10;7.93;;;8.90;99.90;;;;;;5011653;28;20246;-69
2021/12/18 06:50:16;;;;;;;13.03;7.37;;;9.00;99.90;;;;;;5011102;28;20707;-69
2021/12/18 06:52:42;;;;;;;15.83;8.20;;;9.00;99.90;;;;;;5012022;28;20485;-69
2021/12/18 06:55:08;;;;;;;12.63;7.30;;;8.90;99.90;;;;;;5015428;28;20269;-68
2021/12/18 06:57:35;;;;;;;13.73;7.30;;;8.90;99.90;;;;;;5014745;28;20672;-69
2021/12/18 07:00:00;;;;;;;11.87;6.87;;;8.90;99.90;;;;;;5015318;28;20430;-69
2021/12/18 07:02:26;;;;;;;13.30;7.70;;;9.00;99.90;;;;;;5015440;28;20262;-69
2021/12/18 07:04:52;;;;;;;13.57;7.70;;;9.00;99.90;;;;;;5015274;28;20175;-71
2021/12/18 07:07:17;;;;;;;12.33;6.60;;;9.00;99.90;;;;;;5014875;28;20185;-70
2021/12/18 07:09:43;;;;;;;13.37;6.87;;;9.00;99.90;;;;;;5015025;28;20187;-69
2021/12/18 07:12:10;;;;;;;13.17;7.80;;;9.10;99.90;;;;;;5014825;28;20183;-70
2021/12/18 07:14:36;;;;;;;14.90;7.37;;;9.00;99.90;;;;;;5015191;28;20171;-70
2021/12/18 07:17:03;;;;;;;16.40;9.03;;;9.00;99.90;;;;;;5015103;28;20912;-70
2021/12/18 07:19:28;;;;;;;15.77;8.30;;;9.00;99.90;;;;;;5015308;28;20441;-69
2021/12/18 07:21:54;;;;;;;14.70;8.43;;;9.00;99.90;;;;;;5014588;28;20945;-70
2021/12/18 07:24:19;;;;;;;14.77;7.27;;;9.00;99.90;;;;;;5014889;28;20361;-70
2021/12/18 07:26:46;;;;;;;11.60;6.90;;;9.10;99.90;;;;;;5014755;28;20234;-69
2021/12/18 07:29:11;;;;;;;13.90;7.27;;;9.10;99.90;;;;;;5014792;28;20543;-69
2021/12/18 07:31:37;;;;;;;15.80;7.87;;;9.10;99.90;;;;;;5015000;28;20463;-69
2021/12/18 07:34:02;;;;;;;11.23;6.60;;;9.10;99.90;;;;;;5024987;28;20182;-69
2021/12/18 07:36:28;;;;;;;13.30;7.10;;;9.10;99.90;;;;;;5022927;28;20170;-70
2021/12/18 07:38:54;;;;;;;11.00;6.83;;;9.20;99.90;;;;;;5019633;28;20692;-69
2021/12/18 07:41:19;;;;;;;11.37;6.47;;;9.20;99.90;;;;;;5016059;28;20173;-69
2021/12/18 07:43:45;;;;;;;10.93;7.07;;;9.10;99.90;;;;;;5013256;28;20221;-70
2021/12/18 07:46:10;;;;;;;16.80;7.67;;;9.10;99.90;;;;;;5014961;28;20311;-71
2021/12/18 07:48:36;;;;;;;12.80;8.07;;;9.20;99.90;;;;;;5013970;28;20419;-70
2021/12/18 07:51:02;;;;;;;11.30;7.13;;;9.20;99.90;;;;;;5014559;28;20168;-69
2021/12/18 07:53:27;;;;;;;13.27;7.63;;;9.20;99.90;;;;;;5014830;28;20189;-70
2021/12/18 07:55:53;;;;;;;13.70;7.13;;;9.20;99.90;;;;;;5014114;28;20186;-70
2021/12/18 07:58:18;;;;;;;9.37;5.87;;;9.20;99.90;;;;;;5014065;28;20214;-70
2021/12/18 08:00:44;;;;;;;10.80;6.10;;;9.30;99.90;;;;;;5013500;28;20171;-70
2021/12/18 08:03:10;;;;;;;10.43;6.57;;;9.30;99.90;;;;;;5005228;28;20738;-69
2021/12/18 08:05:36;;;;;;;9.80;6.33;;;9.20;99.90;;;;;;5008839;28;20176;-69
2021/12/18 08:08:02;;;;;;;12.17;6.27;;;9.20;99.90;;;;;;5013820;28;20879;-70
2021/12/18 08:10:27;;;;;;;13.67;6.80;;;9.20;99.90;;;;;;5013977;28;20198;-71
2021/12/18 08:12:53;;;;;;;9.53;6.47;;;9.20;99.90;;;;;;5013698;28;20208;-70
2021/12/18 08:15:18;;;;;;;7.90;5.73;;;9.20;99.90;;;;;;5012771;28;20182;-70
2021/12/18 08:17:44;;;;;;;12.53;7.33;;;9.20;99.90;;;;;;5005559;28;20283;-72
2021/12/18 08:20:10;;;;;;;9.17;6.57;;;9.30;99.90;;;;;;5004569;28;20212;-71
2021/12/18 08:22:35;;;;;;;9.10;5.67;;;9.20;99.90;;;;;;5013385;28;20257;-71
2021/12/18 08:25:01;;;;;;;10.33;6.27;;;9.10;99.90;;;;;;5013639;28;20429;-71
2021/12/18 08:27:27;;;;;;;9.73;5.70;;;9.20;99.90;;;;;;5008989;28;20272;-71
2021/12/18 08:29:53;;;;;;;12.90;6.90;;;9.30;99.90;;;;;;5014250;28;20414;-70
2021/12/18 08:32:19;;;;;;;10.30;6.60;;;9.20;99.90;;;;;;5015015;28;20414;-71
2021/12/18 08:34:45;;;;;;;12.43;7.40;;;9.20;99.90;;;;;;5013945;28;20182;-70
2021/12/18 08:37:11;;;;;;;10.97;6.90;;;9.30;99.90;;;;;;5013811;28;20492;-70
2021/12/18 08:39:36;;;;;;;14.40;7.20;;;9.40;99.90;;;;;;5014969;28;20225;-70
2021/12/18 08:42:05;;;;;;;10.30;6.63;;;9.40;99.90;;;;;;5017491;28;20193;-69
2021/12/18 08:44:31;;;;;;;11.27;6.53;;;9.40;99.90;;;;;;5026708;28;20171;-72
2021/12/18 08:46:57;;;;;;;9.90;6.47;;;9.50;99.90;;;;;;5026438;28;20428;-69
2021/12/18 08:49:24;;;;;;;9.33;6.50;;;9.50;99.90;;;;;;5013113;28;20976;-76
2021/12/18 08:51:50;;;;;;;9.97;6.10;;;9.50;99.90;;;;;;5015222;28;20446;-68
2021/12/18 08:54:16;;;;;;;10.43;6.30;;;9.50;99.90;;;;;;5014025;28;20473;-71
2021/12/18 08:56:41;;;;;;;10.73;6.90;;;9.50;99.90;;;;;;5013591;28;20510;-69
2021/12/18 08:59:07;;;;;;;10.27;6.30;;;9.60;99.90;;;;;;5014745;28;20233;-71
2021/12/18 09:01:33;;;;;;;11.93;7.50;;;9.60;99.90;;;;;;5014386;28;20231;-70
2021/12/18 09:03:59;;;;;;;12.03;8.33;;;9.50;99.90;;;;;;5012255;28;20222;-70
2021/12/18 09:06:24;;;;;;;10.87;7.50;;;9.40;99.90;;;;;;5014235;28;20431;-70
2021/12/18 09:08:51;;;;;;;12.60;7.87;;;9.40;99.90;;;;;;5013455;28;20211;-71
2021/12/18 09:11:18;;;;;;;12.37;7.97;;;9.30;99.90;;;;;;5015538;28;20201;-70
2021/12/18 09:13:43;;;;;;;10.37;7.00;;;9.20;99.90;;;;;;5013375;28;20449;-70
2021/12/18 09:16:09;;;;;;;12.27;6.83;;;9.20;99.90;;;;;;5012579;28;20437;-69
2021/12/18 09:18:34;;;;;;;10.30;8.00;;;9.20;99.90;;;;;;5011028;28;20229;-70
2021/12/18 09:21:01;;;;;;;10.23;6.40;;;9.30;99.90;;;;;;5014031;28;20198;-69
2021/12/18 09:23:26;;;;;;;9.57;5.57;;;9.30;99.90;;;;;;5012909;28;20231;-71
2021/12/18 09:25:52;;;;;;;8.50;5.43;;;9.20;99.90;;;;;;5012597;28;20500;-70
2021/12/18 09:28:17;;;;;;;7.17;5.37;;;9.00;99.90;;;;;;5011742;28;20297;-71
2021/12/18 09:30:43;;;;;;;8.50;5.60;;;9.10;99.90;;;;;;5013981;28;20225;-70
2021/12/18 09:33:12;;;;;;;8.50;5.67;;;9.20;99.90;;;;;;5013563;28;20672;-70
2021/12/18 09:35:37;;;;;;;9.20;5.90;;;9.20;99.90;;;;;;5013340;28;20202;-70
2021/12/18 09:38:03;;;;;;;7.73;5.10;;;9.20;99.90;;;;;;5013847;28;20443;-69
2021/12/18 09:40:29;;;;;;;4.67;3.80;;;9.40;99.90;;;;;;5014029;28;20219;-69
2021/12/18 09:42:55;;;;;;;7.17;5.20;;;9.50;99.90;;;;;;5013496;28;20207;-70
2021/12/18 09:45:22;;;;;;;5.93;4.63;;;9.40;99.90;;;;;;5010238;28;20351;-69
2021/12/18 09:47:47;;;;;;;6.73;4.10;;;9.40;99.90;;;;;;5007241;28;20923;-68
2021/12/18 09:50:16;;;;;;;5.40;3.80;;;9.30;99.90;;;;;;5011392;28;20465;-70
2021/12/18 09:52:42;;;;;;;6.97;4.07;;;9.40;99.90;;;;;;5014941;28;20256;-69
2021/12/18 09:55:09;;;;;;;4.33;3.40;;;9.40;99.90;;;;;;5014656;28;21052;-69
2021/12/18 09:57:35;;;;;;;6.53;3.73;;;9.50;99.90;;;;;;5012291;28;20210;-70
2021/12/18 10:00:04;;;;;;;4.50;3.33;;;9.60;99.90;;;;;;5013051;28;20469;-69
2021/12/18 10:02:29;;;;;;;4.60;3.77;;;9.50;99.90;;;;;;5012100;28;20836;-70
2021/12/18 10:04:55;;;;;;;7.50;3.97;;;9.50;99.90;;;;;;5014182;28;20466;-69
2021/12/18 10:07:24;;;;;;;8.00;4.73;;;9.60;99.90;;;;;;5014622;28;20294;-69
2021/12/18 10:09:58;;;;;;;4.03;3.53;;;9.60;99.90;;;;;;5014767;28;20218;-70
2021/12/18 10:12:26;;;;;;;5.43;3.57;;;9.60;99.90;;;;;;5012979;28;20543;-70
2021/12/18 10:14:56;;;;;;;4.67;3.30;;;9.70;99.90;;;;;;5016069;28;20454;-71
2021/12/18 10:17:26;;;;;;;4.93;3.77;;;9.60;99.90;;;;;;5010846;28;20485;-70
2021/12/18 10:20:15;;;;;;;5.67;4.00;;;9.60;99.90;;;;;;5000769;28;20892;-70
2021/12/18 10:22:52;;;;;;;6.23;4.90;;;9.40;99.90;;;;;;4993324;28;20491;-69
2021/12/18 10:25:22;;;;;;;5.50;4.20;;;9.50;99.90;;;;;;5007534;28;20862;-69
2021/12/18 10:28:00;;;;;;;8.03;4.53;;;9.50;99.90;;;;;;5013626;28;20433;-70
2021/12/18 10:30:26;;;;;;;5.73;4.13;;;9.60;99.90;;;;;;5015996;28;20444;-69
2021/12/18 10:33:06;;;;;;;5.00;3.93;;;9.50;99.90;;;;;;5014916;28;20583;-70
2021/12/18 10:35:50;;;;;;;4.33;3.73;;;9.50;99.90;;;;;;5015739;28;20218;-69
2021/12/18 10:38:34;;;;;;;4.93;4.43;;;9.60;99.90;;;;;;5015196;28;21026;-69
2021/12/18 10:40:59;;;;;;;6.07;4.67;;;9.60;99.90;;;;;;5016079;28;20477;-71
2021/12/18 10:43:25;;;;;;;5.57;4.70;;;9.70;99.90;;;;;;5018005;28;20495;-71
2021/12/18 10:45:50;;;;;;;9.50;5.40;;;9.80;99.90;;;;;;5016040;28;20658;-71
2021/12/18 10:48:19;;;;;;;5.37;4.60;;;9.90;99.90;;;;;;5017264;28;20205;-70
2021/12/18 10:50:50;;;;;;;6.37;4.90;;;9.60;99.90;;;;;;5016281;28;20221;-70
2021/12/18 10:53:23;;;;;;;6.90;4.90;;;9.60;99.90;;;;;;5014771;28;20906;-69
2021/12/18 10:56:00;;;;;;;8.53;5.60;;;9.60;99.90;;;;;;5014714;28;20453;-70
2021/12/18 10:58:28;;;;;;;8.80;5.97;;;9.70;99.90;;;;;;4997047;28;20812;-70
2021/12/18 11:01:04;;;;;;;7.70;5.47;;;9.80;99.90;;;;;;4996714;28;20462;-70
2021/12/18 11:03:43;;;;;;;9.87;6.40;;;9.90;99.90;;;;;;5004809;28;21004;-71
2021/12/18 11:06:15;;;;;;;12.10;7.93;;;9.90;99.90;;;;;;5007273;28;20992;-71
2021/12/18 11:08:59;;;;;;;10.60;7.07;;;9.70;99.90;;;;;;5009558;28;20850;-69
2021/12/18 11:14:03;;;;;;;11.07;7.50;;;9.30;99.90;;;;;;5016246;28;20443;-70
2021/12/18 11:16:29;;;;;;;13.83;8.87;;;9.20;99.90;;;;;;5022007;28;20418;-69
2021/12/18 11:18:55;;;;;;;12.60;9.10;;;9.20;99.90;;;;;;5024615;28;20955;-69
2021/12/18 11:21:25;;;;;;;16.00;8.77;;;9.20;99.90;;;;;;5024412;28;20424;-69
2021/12/18 11:24:04;;;;;;;16.33;9.27;;;9.10;99.90;;;;;;5021176;28;20484;-69
2021/12/18 11:26:54;;;;;;;12.53;8.20;;;9.10;99.90;;;;;;5015468;28;20842;-70
2021/12/18 11:29:27;;;;;;;14.40;8.07;;;9.20;99.90;;;;;;5014334;28;20441;-69
2021/12/18 11:31:54;;;;;;;13.27;8.33;;;9.20;99.90;;;;;;5012889;28;21007;-69
2021/12/18 11:34:19;;;;;;;13.00;8.10;;;9.20;99.90;;;;;;5015287;28;20517;-69
2021/12/18 11:36:49;;;;;;;16.00;8.50;;;9.30;99.90;;;;;;5001406;28;20517;-69
2021/12/18 11:39:17;;;;;;;13.07;7.40;;;9.20;99.90;;;;;;5013232;28;20222;-69
2021/12/18 11:41:48;;;;;;;13.60;7.83;;;9.30;99.90;;;;;;5011136;28;20433;-71
2021/12/18 11:44:32;;;;;;;12.67;7.80;;;9.30;99.90;;;;;;5012530;28;20573;-72
2021/12/18 11:47:19;;;;;;;12.90;8.90;;;9.40;99.90;;;;;;5007570;28;20526;-69
2021/12/18 11:49:44;;;;;;;13.60;8.13;;;9.50;99.90;;;;;;5013000;28;20563;-70
2021/12/18 11:52:10;;;;;;;15.37;9.07;;;9.60;99.90;;;;;;5012210;28;20442;-69
2021/12/18 11:54:38;;;;;;;12.33;8.37;;;9.60;99.90;;;;;;5010480;28;20186;-68
2021/12/18 11:57:04;;;;;;;9.60;7.00;;;9.50;99.90;;;;;;5010549;28;20190;-70
2021/12/18 11:59:44;;;;;;;12.27;8.00;;;9.40;99.90;;;;;;5012792;28;21077;-69
2021/12/18 12:02:11;;;;;;;16.80;8.80;;;9.40;99.90;;;;;;5012984;28;20257;-70
2021/12/18 12:04:59;;;;;;;11.37;7.90;;;9.50;99.90;;;;;;5013235;28;20922;-70
2021/12/18 12:07:27;;;;;;;12.77;8.23;;;9.50;99.90;;;;;;5006402;28;20785;-69
2021/12/18 12:10:34;;;;;;;9.60;6.90;;;9.60;99.90;;;;;;5007744;28;20411;-71
2021/12/18 12:13:00;;;;;;;9.40;6.87;;;9.60;99.90;;;;;;5010591;28;20960;-67
2021/12/18 12:15:27;;;;;;;14.93;8.10;;;9.40;99.90;;;;;;5012151;28;20468;-71
2021/12/18 12:17:56;;;;;;;10.70;7.83;;;9.30;99.90;;;;;;5008749;28;20218;-71
2021/12/18 12:20:41;;;;;;;13.00;8.23;;;9.40;99.90;;;;;;5013758;28;20426;-70
2021/12/18 12:23:09;;;;;;;15.30;8.87;;;9.50;99.90;;;;;;5014274;28;20546;-69
2021/12/18 12:25:39;;;;;;;13.37;10.00;;;9.50;99.90;;;;;;5012076;28;20450;-71
2021/12/18 12:28:20;;;;;;;12.23;9.30;;;9.50;99.90;;;;;;5010804;28;20465;-69
2021/12/18 12:31:00;;;;;;;11.00;8.10;;;9.50;99.90;;;;;;4995666;28;20416;-70
2021/12/18 12:33:32;;;;;;;13.53;8.13;;;9.50;99.90;;;;;;5005435;28;20459;-70
2021/12/18 12:36:25;;;;;;;11.87;8.20;;;9.50;99.90;;;;;;5018172;28;20988;-72
2021/12/18 12:38:59;;;;;;;10.20;7.80;;;9.50;99.90;;;;;;4999464;28;20463;-72
2021/12/18 12:41:36;;;;;;;13.50;8.90;;;9.60;99.90;;;;;;5009058;28;20440;-71
2021/12/18 12:44:39;;;;;;;13.67;9.70;;;9.60;99.90;;;;;;5014815;28;20397;-70
2021/12/18 12:47:24;;;;;;;13.63;8.97;;;9.40;99.90;;;;;;5013922;28;20791;-71
2021/12/18 12:49:56;;;;;;;15.03;10.43;;;9.30;99.90;;;;;;5014028;28;20408;-71
2021/12/18 12:52:27;;;;;;;17.33;9.97;;;9.10;99.90;;;;;;5021574;28;20424;-71
2021/12/18 12:55:04;;;;;;;20.83;10.90;;;9.00;99.90;;;;;;5013646;28;20972;-71
2021/12/18 12:57:31;;;;;;;19.27;10.83;;;8.90;99.90;;;;;;5013508;28;20476;-70
2021/12/18 13:00:05;;;;;;;18.17;11.70;;;8.80;99.90;;;;;;5013731;28;20419;-70
2021/12/18 13:02:34;;;;;;;18.87;12.80;;;8.90;99.90;;;;;;5013295;28;20806;-71
2021/12/18 13:05:08;;;;;;;17.67;12.03;;;8.90;99.90;;;;;;5017299;28;20493;-69
2021/12/18 13:07:35;;;;;;;19.50;11.97;;;9.00;99.90;;;;;;5014020;28;20410;-71
2021/12/18 13:10:01;;;;;;;22.63;13.43;;;9.10;99.90;;;;;;5015704;28;20414;-70
2021/12/18 13:12:26;;;;;;;20.83;12.80;;;9.00;99.90;;;;;;5015964;28;20437;-71
2021/12/18 13:14:55;;;;;;;22.87;13.10;;;9.00;99.90;;;;;;5016383;28;20818;-70
2021/12/18 13:17:26;;;;;;;21.63;13.87;;;9.10;99.90;;;;;;5015994;28;20198;-70
2021/12/18 13:19:52;;;;;;;20.83;14.30;;;9.10;99.90;;;;;;5016484;28;20498;-71
2021/12/18 13:22:17;;;;;;;24.00;13.43;;;9.00;99.90;;;;;;5016506;28;20553;-71
2021/12/18 13:24:43;;;;;;;20.70;13.03;;;8.90;99.90;;;;;;5016978;28;20165;-70
2021/12/18 13:27:11;;;;;;;20.07;13.10;;;8.80;99.90;;;;;;5016549;28;20166;-70
2021/12/18 13:29:37;;;;;;;18.10;13.40;;;8.80;99.90;;;;;;5015041;28;20616;-72
2021/12/18 13:32:05;;;;;;;17.00;11.93;;;8.80;99.90;;;;;;5017024;28;20420;-70
2021/12/18 13:34:36;;;;;;;18.17;13.60;;;8.90;99.90;;;;;;5015141;28;20187;-70
2021/12/18 13:37:04;;;;;;;21.17;12.90;;;8.90;99.90;;;;;;4996119;28;20418;-71
2021/12/18 13:39:32;;;;;;;19.87;13.00;;;9.10;99.90;;;;;;4996673;28;20502;-72
2021/12/18 13:42:08;;;;;;;18.30;13.60;;;9.20;99.90;;;;;;4997181;28;20589;-71